sensor_id;sensor_type;location;lat;lon;timestamp;P1;durP1;ratioP1;P2;durP2;ratioP2
78664;SDS011;67981;51.022;-2.870;2023-04-24T00:01:12;12.33;;;6.70;;
78664;SDS011;67981;51.022;-2.870;2023-04-24T00:03:38;10.93;;;6.03;;
78664;SDS011;67981;51.022;-2.870;2023-04-24T00:06:04;13.07;;;6.18;;
78664;SDS011;67981;51.022;-2.870;2023-04-24T00:08:31;9.43;;;5.93;;
78664;SDS011;67981;51.022;-2.870;2023-04-24T00:10:57;11.02;;;6.45;;
78664;SDS011;67981;51.022;-2.870;2023-04-24T00:13:22;9.80;;;6.53;;
78664;SDS011;67981;51.022;-2.870;2023-04-24T00:15:48;14.88;;;7.65;;
78664;SDS011;67981;51.022;-2.870;2023-04-24T00:18:13;11.95;;;7.35;;
78664;SDS011;67981;51.022;-2.870;2023-04-24T00:20:39;11.30;;;7.82;;
78664;SDS011;67981;51.022;-2.870;2023-04-24T00:23:04;10.88;;;7.70;;
78664;SDS011;67981;51.022;-2.870;2023-04-24T00:25:30;10.68;;;6.45;;
78664;SDS011;67981;51.022;-2.870;2023-04-24T00:27:56;15.52;;;7.50;;
78664;SDS011;67981;51.022;-2.870;2023-04-24T00:30:21;14.77;;;6.88;;
78664;SDS011;67981;51.022;-2.870;2023-04-24T00:32:47;11.13;;;6.53;;
78664;SDS011;67981;51.022;-2.870;2023-04-24T00:35:12;13.88;;;7.97;;
78664;SDS011;67981;51.022;-2.870;2023-04-24T00:37:37;15.60;;;7.22;;
78664;SDS011;67981;51.022;-2.870;2023-04-24T00:40:03;10.95;;;6.43;;
78664;SDS011;67981;51.022;-2.870;2023-04-24T00:42:29;13.93;;;7.18;;
78664;SDS011;67981;51.022;-2.870;2023-04-24T00:44:55;10.57;;;6.60;;
78664;SDS011;67981;51.022;-2.870;2023-04-24T00:47:21;11.98;;;6.93;;
78664;SDS011;67981;51.022;-2.870;2023-04-24T00:49:47;12.52;;;7.10;;
78664;SDS011;67981;51.022;-2.870;2023-04-24T00:52:12;12.25;;;7.30;;
78664;SDS011;67981;51.022;-2.870;2023-04-24T00:54:42;14.10;;;7.53;;
78664;SDS011;67981;51.022;-2.870;2023-04-24T00:57:09;12.95;;;7.10;;
78664;SDS011;67981;51.022;-2.870;2023-04-24T00:59:34;13.63;;;6.87;;
78664;SDS011;67981;51.022;-2.870;2023-04-24T01:02:01;11.13;;;7.10;;
78664;SDS011;67981;51.022;-2.870;2023-04-24T01:04:27;12.10;;;6.78;;
78664;SDS011;67981;51.022;-2.870;2023-04-24T01:06:52;12.20;;;7.35;;
78664;SDS011;67981;51.022;-2.870;2023-04-24T01:09:21;12.35;;;7.10;;
78664;SDS011;67981;51.022;-2.870;2023-04-24T01:11:48;11.35;;;6.68;;
78664;SDS011;67981;51.022;-2.870;2023-04-24T01:14:14;12.38;;;6.75;;
78664;SDS011;67981;51.022;-2.870;2023-04-24T01:16:39;11.00;;;7.25;;
78664;SDS011;67981;51.022;-2.870;2023-04-24T01:19:06;14.18;;;6.97;;
78664;SDS011;67981;51.022;-2.870;2023-04-24T01:21:34;10.95;;;7.10;;
78664;SDS011;67981;51.022;-2.870;2023-04-24T01:24:02;12.13;;;7.05;;
78664;SDS011;67981;51.022;-2.870;2023-04-24T01:26:29;13.48;;;7.30;;
78664;SDS011;67981;51.022;-2.870;2023-04-24T01:28:55;13.02;;;6.70;;
78664;SDS011;67981;51.022;-2.870;2023-04-24T01:31:20;12.13;;;6.57;;
78664;SDS011;67981;51.022;-2.870;2023-04-24T01:33:46;12.20;;;7.47;;
78664;SDS011;67981;51.022;-2.870;2023-04-24T01:36:12;12.75;;;6.80;;
78664;SDS011;67981;51.022;-2.870;2023-04-24T01:38:38;10.55;;;6.97;;
78664;SDS011;67981;51.022;-2.870;2023-04-24T01:41:04;11.18;;;7.35;;
78664;SDS011;67981;51.022;-2.870;2023-04-24T01:43:29;13.88;;;7.97;;
78664;SDS011;67981;51.022;-2.870;2023-04-24T01:45:55;14.00;;;8.13;;
78664;SDS011;67981;51.022;-2.870;2023-04-24T01:48:20;12.05;;;7.28;;
78664;SDS011;67981;51.022;-2.870;2023-04-24T01:50:47;16.85;;;7.40;;
78664;SDS011;67981;51.022;-2.870;2023-04-24T01:53:12;11.82;;;7.75;;
78664;SDS011;67981;51.022;-2.870;2023-04-24T01:55:38;12.13;;;7.20;;
78664;SDS011;67981;51.022;-2.870;2023-04-24T01:58:03;12.73;;;7.75;;
78664;SDS011;67981;51.022;-2.870;2023-04-24T02:00:28;13.82;;;7.60;;
78664;SDS011;67981;51.022;-2.870;2023-04-24T02:02:54;14.55;;;8.82;;
78664;SDS011;67981;51.022;-2.870;2023-04-24T02:05:20;14.93;;;7.87;;
78664;SDS011;67981;51.022;-2.870;2023-04-24T02:07:45;14.50;;;7.55;;
78664;SDS011;67981;51.022;-2.870;2023-04-24T02:10:10;13.48;;;8.38;;
78664;SDS011;67981;51.022;-2.870;2023-04-24T02:12:36;14.05;;;9.75;;
78664;SDS011;67981;51.022;-2.870;2023-04-24T02:15:02;14.07;;;8.98;;
78664;SDS011;67981;51.022;-2.870;2023-04-24T02:17:27;13.68;;;7.78;;
78664;SDS011;67981;51.022;-2.870;2023-04-24T02:19:53;16.02;;;8.25;;
78664;SDS011;67981;51.022;-2.870;2023-04-24T02:22:18;14.02;;;8.43;;
78664;SDS011;67981;51.022;-2.870;2023-04-24T02:24:44;13.23;;;8.68;;
78664;SDS011;67981;51.022;-2.870;2023-04-24T02:27:09;16.15;;;8.60;;
78664;SDS011;67981;51.022;-2.870;2023-04-24T02:29:36;13.68;;;7.68;;
78664;SDS011;67981;51.022;-2.870;2023-04-24T02:32:01;14.82;;;9.75;;
78664;SDS011;67981;51.022;-2.870;2023-04-24T02:34:27;13.90;;;8.10;;
78664;SDS011;67981;51.022;-2.870;2023-04-24T02:36:52;15.25;;;8.50;;
78664;SDS011;67981;51.022;-2.870;2023-04-24T02:39:19;17.80;;;8.95;;
78664;SDS011;67981;51.022;-2.870;2023-04-24T02:41:44;18.85;;;9.07;;
78664;SDS011;67981;51.022;-2.870;2023-04-24T02:44:10;15.70;;;8.25;;
78664;SDS011;67981;51.022;-2.870;2023-04-24T02:46:36;14.77;;;9.55;;
78664;SDS011;67981;51.022;-2.870;2023-04-24T02:49:01;15.98;;;9.13;;
78664;SDS011;67981;51.022;-2.870;2023-04-24T02:51:27;21.38;;;10.30;;
78664;SDS011;67981;51.022;-2.870;2023-04-24T02:53:53;19.73;;;9.45;;
78664;SDS011;67981;51.022;-2.870;2023-04-24T02:56:18;15.32;;;8.50;;
78664;SDS011;67981;51.022;-2.870;2023-04-24T02:58:44;14.75;;;8.77;;
78664;SDS011;67981;51.022;-2.870;2023-04-24T03:01:09;13.32;;;8.40;;
78664;SDS011;67981;51.022;-2.870;2023-04-24T03:03:35;14.68;;;8.63;;
78664;SDS011;67981;51.022;-2.870;2023-04-24T03:06:01;15.20;;;8.82;;
78664;SDS011;67981;51.022;-2.870;2023-04-24T03:08:26;14.07;;;8.52;;
78664;SDS011;67981;51.022;-2.870;2023-04-24T03:10:52;17.20;;;9.35;;
78664;SDS011;67981;51.022;-2.870;2023-04-24T03:13:17;18.67;;;8.98;;
78664;SDS011;67981;51.022;-2.870;2023-04-24T03:15:42;15.40;;;9.80;;
78664;SDS011;67981;51.022;-2.870;2023-04-24T03:18:08;16.80;;;7.93;;
78664;SDS011;67981;51.022;-2.870;2023-04-24T03:20:33;13.63;;;7.88;;
78664;SDS011;67981;51.022;-2.870;2023-04-24T03:22:59;20.25;;;9.70;;
78664;SDS011;67981;51.022;-2.870;2023-04-24T03:25:24;17.38;;;9.23;;
78664;SDS011;67981;51.022;-2.870;2023-04-24T03:27:50;15.27;;;9.30;;
78664;SDS011;67981;51.022;-2.870;2023-04-24T03:30:16;17.00;;;9.70;;
78664;SDS011;67981;51.022;-2.870;2023-04-24T03:32:41;17.30;;;9.85;;
78664;SDS011;67981;51.022;-2.870;2023-04-24T03:35:07;14.90;;;8.75;;
78664;SDS011;67981;51.022;-2.870;2023-04-24T03:37:33;15.43;;;9.77;;
78664;SDS011;67981;51.022;-2.870;2023-04-24T03:39:59;16.02;;;9.57;;
78664;SDS011;67981;51.022;-2.870;2023-04-24T03:42:24;16.25;;;8.10;;
78664;SDS011;67981;51.022;-2.870;2023-04-24T03:44:49;17.83;;;8.73;;
78664;SDS011;67981;51.022;-2.870;2023-04-24T03:47:15;16.75;;;8.82;;
78664;SDS011;67981;51.022;-2.870;2023-04-24T03:49:40;17.83;;;9.25;;
78664;SDS011;67981;51.022;-2.870;2023-04-24T03:52:06;14.32;;;8.77;;
78664;SDS011;67981;51.022;-2.870;2023-04-24T03:54:31;13.13;;;9.30;;
78664;SDS011;67981;51.022;-2.870;2023-04-24T03:56:56;13.18;;;8.20;;
78664;SDS011;67981;51.022;-2.870;2023-04-24T03:59:22;13.02;;;8.05;;
78664;SDS011;67981;51.022;-2.870;2023-04-24T04:01:47;15.10;;;8.20;;
78664;SDS011;67981;51.022;-2.870;2023-04-24T04:04:13;13.52;;;7.68;;
78664;SDS011;67981;51.022;-2.870;2023-04-24T04:06:38;18.98;;;8.05;;
78664;SDS011;67981;51.022;-2.870;2023-04-24T04:09:03;16.17;;;9.10;;
78664;SDS011;67981;51.022;-2.870;2023-04-24T04:11:29;16.58;;;9.95;;
78664;SDS011;67981;51.022;-2.870;2023-04-24T04:13:55;14.50;;;9.38;;
78664;SDS011;67981;51.022;-2.870;2023-04-24T04:16:21;12.30;;;7.43;;
78664;SDS011;67981;51.022;-2.870;2023-04-24T04:18:47;16.30;;;9.25;;
78664;SDS011;67981;51.022;-2.870;2023-04-24T04:21:13;17.10;;;8.93;;
78664;SDS011;67981;51.022;-2.870;2023-04-24T04:23:38;14.63;;;8.75;;
78664;SDS011;67981;51.022;-2.870;2023-04-24T04:26:05;14.13;;;8.15;;
78664;SDS011;67981;51.022;-2.870;2023-04-24T04:28:30;15.05;;;8.23;;
78664;SDS011;67981;51.022;-2.870;2023-04-24T04:30:56;18.35;;;8.15;;
78664;SDS011;67981;51.022;-2.870;2023-04-24T04:33:23;15.88;;;8.02;;
78664;SDS011;67981;51.022;-2.870;2023-04-24T04:35:48;16.80;;;9.07;;
78664;SDS011;67981;51.022;-2.870;2023-04-24T04:38:15;13.30;;;8.60;;
78664;SDS011;67981;51.022;-2.870;2023-04-24T04:40:42;15.98;;;8.30;;
78664;SDS011;67981;51.022;-2.870;2023-04-24T04:43:07;18.10;;;9.00;;
78664;SDS011;67981;51.022;-2.870;2023-04-24T04:45:33;13.23;;;7.43;;
78664;SDS011;67981;51.022;-2.870;2023-04-24T04:47:59;15.10;;;8.07;;
78664;SDS011;67981;51.022;-2.870;2023-04-24T04:50:26;14.30;;;8.35;;
78664;SDS011;67981;51.022;-2.870;2023-04-24T04:52:51;14.57;;;9.20;;
78664;SDS011;67981;51.022;-2.870;2023-04-24T04:55:17;16.98;;;10.13;;
78664;SDS011;67981;51.022;-2.870;2023-04-24T04:57:44;15.82;;;9.13;;
78664;SDS011;67981;51.022;-2.870;2023-04-24T05:00:10;11.27;;;7.38;;
78664;SDS011;67981;51.022;-2.870;2023-04-24T05:02:36;12.70;;;7.88;;
78664;SDS011;67981;51.022;-2.870;2023-04-24T05:05:02;11.47;;;6.97;;
78664;SDS011;67981;51.022;-2.870;2023-04-24T05:07:27;15.80;;;9.30;;
78664;SDS011;67981;51.022;-2.870;2023-04-24T05:09:52;13.13;;;7.53;;
78664;SDS011;67981;51.022;-2.870;2023-04-24T05:12:18;15.63;;;8.27;;
78664;SDS011;67981;51.022;-2.870;2023-04-24T05:14:43;12.35;;;7.10;;
78664;SDS011;67981;51.022;-2.870;2023-04-24T05:17:08;11.50;;;6.50;;
78664;SDS011;67981;51.022;-2.870;2023-04-24T05:19:34;14.75;;;8.55;;
78664;SDS011;67981;51.022;-2.870;2023-04-24T05:22:02;12.75;;;7.40;;
78664;SDS011;67981;51.022;-2.870;2023-04-24T05:24:29;14.30;;;7.97;;
78664;SDS011;67981;51.022;-2.870;2023-04-24T05:26:54;13.27;;;8.13;;
78664;SDS011;67981;51.022;-2.870;2023-04-24T05:29:20;12.95;;;7.30;;
78664;SDS011;67981;51.022;-2.870;2023-04-24T05:31:46;13.52;;;8.40;;
78664;SDS011;67981;51.022;-2.870;2023-04-24T05:34:11;15.70;;;8.40;;
78664;SDS011;67981;51.022;-2.870;2023-04-24T05:36:37;15.55;;;7.97;;
78664;SDS011;67981;51.022;-2.870;2023-04-24T05:39:02;14.00;;;7.40;;
78664;SDS011;67981;51.022;-2.870;2023-04-24T05:41:30;11.43;;;6.55;;
78664;SDS011;67981;51.022;-2.870;2023-04-24T05:43:55;12.30;;;7.25;;
78664;SDS011;67981;51.022;-2.870;2023-04-24T05:46:20;13.07;;;8.38;;
78664;SDS011;67981;51.022;-2.870;2023-04-24T05:48:46;12.43;;;7.75;;
78664;SDS011;67981;51.022;-2.870;2023-04-24T05:51:11;14.15;;;7.68;;
78664;SDS011;67981;51.022;-2.870;2023-04-24T05:53:37;11.52;;;7.40;;
78664;SDS011;67981;51.022;-2.870;2023-04-24T05:56:02;10.35;;;6.80;;
78664;SDS011;67981;51.022;-2.870;2023-04-24T05:58:28;14.50;;;7.82;;
78664;SDS011;67981;51.022;-2.870;2023-04-24T06:00:53;13.23;;;7.57;;
78664;SDS011;67981;51.022;-2.870;2023-04-24T06:03:18;11.83;;;7.30;;
78664;SDS011;67981;51.022;-2.870;2023-04-24T06:05:44;12.80;;;6.60;;
78664;SDS011;67981;51.022;-2.870;2023-04-24T06:08:09;10.95;;;7.35;;
78664;SDS011;67981;51.022;-2.870;2023-04-24T06:10:34;12.57;;;7.45;;
78664;SDS011;67981;51.022;-2.870;2023-04-24T06:13:00;14.80;;;7.70;;
78664;SDS011;67981;51.022;-2.870;2023-04-24T06:15:29;15.95;;;6.68;;
78664;SDS011;67981;51.022;-2.870;2023-04-24T06:17:56;13.77;;;8.15;;
78664;SDS011;67981;51.022;-2.870;2023-04-24T06:20:22;16.23;;;6.88;;
78664;SDS011;67981;51.022;-2.870;2023-04-24T06:22:47;13.40;;;6.68;;
78664;SDS011;67981;51.022;-2.870;2023-04-24T06:25:12;13.60;;;7.13;;
78664;SDS011;67981;51.022;-2.870;2023-04-24T06:27:38;11.18;;;6.32;;
78664;SDS011;67981;51.022;-2.870;2023-04-24T06:30:03;12.02;;;6.15;;
78664;SDS011;67981;51.022;-2.870;2023-04-24T06:32:29;13.60;;;7.07;;
78664;SDS011;67981;51.022;-2.870;2023-04-24T06:34:55;12.68;;;7.40;;
78664;SDS011;67981;51.022;-2.870;2023-04-24T06:37:21;11.80;;;6.93;;
78664;SDS011;67981;51.022;-2.870;2023-04-24T06:39:46;16.20;;;9.75;;
78664;SDS011;67981;51.022;-2.870;2023-04-24T06:42:12;14.23;;;7.78;;
78664;SDS011;67981;51.022;-2.870;2023-04-24T06:44:37;9.88;;;6.57;;
78664;SDS011;67981;51.022;-2.870;2023-04-24T06:47:09;10.60;;;6.88;;
78664;SDS011;67981;51.022;-2.870;2023-04-24T06:49:35;13.88;;;6.93;;
78664;SDS011;67981;51.022;-2.870;2023-04-24T06:52:02;13.48;;;7.85;;
78664;SDS011;67981;51.022;-2.870;2023-04-24T06:54:28;10.27;;;7.43;;
78664;SDS011;67981;51.022;-2.870;2023-04-24T06:56:54;13.80;;;6.70;;
78664;SDS011;67981;51.022;-2.870;2023-04-24T06:59:20;12.25;;;6.93;;
78664;SDS011;67981;51.022;-2.870;2023-04-24T07:01:45;12.40;;;7.00;;
78664;SDS011;67981;51.022;-2.870;2023-04-24T07:04:11;10.07;;;6.53;;
78664;SDS011;67981;51.022;-2.870;2023-04-24T07:06:37;11.95;;;6.93;;
78664;SDS011;67981;51.022;-2.870;2023-04-24T07:09:04;11.48;;;7.32;;
78664;SDS011;67981;51.022;-2.870;2023-04-24T07:11:29;13.23;;;7.35;;
78664;SDS011;67981;51.022;-2.870;2023-04-24T07:13:55;14.07;;;7.40;;
78664;SDS011;67981;51.022;-2.870;2023-04-24T07:16:21;10.65;;;6.72;;
78664;SDS011;67981;51.022;-2.870;2023-04-24T07:18:46;10.38;;;6.85;;
78664;SDS011;67981;51.022;-2.870;2023-04-24T07:21:12;11.98;;;7.07;;
78664;SDS011;67981;51.022;-2.870;2023-04-24T07:23:37;70.20;;;32.65;;
78664;SDS011;67981;51.022;-2.870;2023-04-24T07:26:03;43.95;;;23.67;;
78664;SDS011;67981;51.022;-2.870;2023-04-24T07:28:28;79.13;;;40.72;;
78664;SDS011;67981;51.022;-2.870;2023-04-24T07:30:56;85.07;;;48.05;;
78664;SDS011;67981;51.022;-2.870;2023-04-24T07:33:22;112.82;;;51.42;;
78664;SDS011;67981;51.022;-2.870;2023-04-24T07:35:47;59.45;;;36.28;;
78664;SDS011;67981;51.022;-2.870;2023-04-24T07:38:13;62.00;;;35.60;;
78664;SDS011;67981;51.022;-2.870;2023-04-24T07:40:38;28.60;;;17.95;;
78664;SDS011;67981;51.022;-2.870;2023-04-24T07:43:04;72.50;;;42.38;;
78664;SDS011;67981;51.022;-2.870;2023-04-24T07:45:29;63.80;;;45.65;;
78664;SDS011;67981;51.022;-2.870;2023-04-24T07:47:56;24.10;;;18.88;;
78664;SDS011;67981;51.022;-2.870;2023-04-24T07:50:21;34.38;;;26.42;;
78664;SDS011;67981;51.022;-2.870;2023-04-24T07:52:47;36.72;;;28.95;;
78664;SDS011;67981;51.022;-2.870;2023-04-24T07:55:12;47.13;;;30.40;;
78664;SDS011;67981;51.022;-2.870;2023-04-24T07:57:38;50.23;;;34.23;;
78664;SDS011;67981;51.022;-2.870;2023-04-24T08:00:04;58.08;;;39.47;;
78664;SDS011;67981;51.022;-2.870;2023-04-24T08:02:30;23.92;;;15.88;;
78664;SDS011;67981;51.022;-2.870;2023-04-24T08:04:56;22.30;;;13.50;;
78664;SDS011;67981;51.022;-2.870;2023-04-24T08:07:21;98.40;;;62.50;;
78664;SDS011;67981;51.022;-2.870;2023-04-24T08:09:48;20.83;;;12.98;;
78664;SDS011;67981;51.022;-2.870;2023-04-24T08:12:13;12.73;;;8.27;;
78664;SDS011;67981;51.022;-2.870;2023-04-24T08:14:39;11.38;;;6.43;;
78664;SDS011;67981;51.022;-2.870;2023-04-24T08:17:04;13.57;;;6.72;;
78664;SDS011;67981;51.022;-2.870;2023-04-24T08:19:30;10.27;;;6.18;;
78664;SDS011;67981;51.022;-2.870;2023-04-24T08:21:55;8.95;;;6.05;;
78664;SDS011;67981;51.022;-2.870;2023-04-24T08:24:21;13.18;;;6.93;;
78664;SDS011;67981;51.022;-2.870;2023-04-24T08:26:47;10.68;;;5.75;;
78664;SDS011;67981;51.022;-2.870;2023-04-24T08:29:15;12.68;;;6.30;;
78664;SDS011;67981;51.022;-2.870;2023-04-24T08:31:41;8.52;;;5.72;;
78664;SDS011;67981;51.022;-2.870;2023-04-24T08:34:06;8.38;;;5.32;;
78664;SDS011;67981;51.022;-2.870;2023-04-24T08:36:32;12.43;;;5.43;;
78664;SDS011;67981;51.022;-2.870;2023-04-24T08:38:57;8.90;;;5.18;;
78664;SDS011;67981;51.022;-2.870;2023-04-24T08:41:22;9.15;;;4.18;;
78664;SDS011;67981;51.022;-2.870;2023-04-24T08:43:51;11.02;;;5.15;;
78664;SDS011;67981;51.022;-2.870;2023-04-24T08:46:16;7.68;;;4.38;;
78664;SDS011;67981;51.022;-2.870;2023-04-24T08:48:43;7.55;;;4.18;;
78664;SDS011;67981;51.022;-2.870;2023-04-24T08:51:10;13.75;;;5.05;;
78664;SDS011;67981;51.022;-2.870;2023-04-24T08:53:36;6.82;;;4.20;;
78664;SDS011;67981;51.022;-2.870;2023-04-24T08:56:02;8.57;;;4.75;;
78664;SDS011;67981;51.022;-2.870;2023-04-24T08:58:28;8.88;;;4.53;;
78664;SDS011;67981;51.022;-2.870;2023-04-24T09:00:55;13.85;;;4.88;;
78664;SDS011;67981;51.022;-2.870;2023-04-24T09:03:20;8.18;;;4.40;;
78664;SDS011;67981;51.022;-2.870;2023-04-24T09:05:46;6.82;;;3.80;;
78664;SDS011;67981;51.022;-2.870;2023-04-24T09:08:14;8.40;;;4.53;;
78664;SDS011;67981;51.022;-2.870;2023-04-24T09:10:42;7.18;;;4.20;;
78664;SDS011;67981;51.022;-2.870;2023-04-24T09:13:08;8.60;;;4.68;;
78664;SDS011;67981;51.022;-2.870;2023-04-24T09:15:35;8.30;;;4.65;;
78664;SDS011;67981;51.022;-2.870;2023-04-24T09:18:05;9.93;;;4.88;;
78664;SDS011;67981;51.022;-2.870;2023-04-24T09:20:31;10.48;;;4.55;;
78664;SDS011;67981;51.022;-2.870;2023-04-24T09:22:57;10.82;;;4.18;;
78664;SDS011;67981;51.022;-2.870;2023-04-24T09:25:24;7.80;;;4.35;;
78664;SDS011;67981;51.022;-2.870;2023-04-24T09:27:59;11.52;;;4.28;;
78664;SDS011;67981;51.022;-2.870;2023-04-24T09:30:25;7.93;;;4.10;;
78664;SDS011;67981;51.022;-2.870;2023-04-24T09:33:03;8.15;;;3.72;;
78664;SDS011;67981;51.022;-2.870;2023-04-24T09:35:35;9.35;;;4.22;;
78664;SDS011;67981;51.022;-2.870;2023-04-24T09:38:00;7.15;;;3.75;;
78664;SDS011;67981;51.022;-2.870;2023-04-24T09:40:26;6.13;;;4.35;;
78664;SDS011;67981;51.022;-2.870;2023-04-24T09:42:52;9.75;;;3.88;;
78664;SDS011;67981;51.022;-2.870;2023-04-24T09:45:19;9.50;;;4.32;;
78664;SDS011;67981;51.022;-2.870;2023-04-24T09:47:45;6.95;;;3.40;;
78664;SDS011;67981;51.022;-2.870;2023-04-24T09:52:41;8.50;;;4.15;;
78664;SDS011;67981;51.022;-2.870;2023-04-24T09:55:11;6.88;;;4.07;;
78664;SDS011;67981;51.022;-2.870;2023-04-24T09:57:46;11.00;;;4.20;;
78664;SDS011;67981;51.022;-2.870;2023-04-24T10:00:13;7.72;;;3.65;;
78664;SDS011;67981;51.022;-2.870;2023-04-24T10:02:38;10.60;;;4.28;;
78664;SDS011;67981;51.022;-2.870;2023-04-24T10:05:04;7.80;;;4.10;;
78664;SDS011;67981;51.022;-2.870;2023-04-24T10:07:32;8.43;;;4.07;;
78664;SDS011;67981;51.022;-2.870;2023-04-24T10:09:57;7.30;;;3.90;;
78664;SDS011;67981;51.022;-2.870;2023-04-24T10:12:24;8.75;;;4.03;;
78664;SDS011;67981;51.022;-2.870;2023-04-24T10:14:50;12.80;;;3.80;;
78664;SDS011;67981;51.022;-2.870;2023-04-24T10:17:16;7.90;;;4.03;;
78664;SDS011;67981;51.022;-2.870;2023-04-24T10:19:42;11.98;;;4.00;;
78664;SDS011;67981;51.022;-2.870;2023-04-24T10:22:08;6.68;;;4.22;;
78664;SDS011;67981;51.022;-2.870;2023-04-24T10:24:34;7.97;;;5.15;;
78664;SDS011;67981;51.022;-2.870;2023-04-24T10:27:02;9.82;;;5.07;;
78664;SDS011;67981;51.022;-2.870;2023-04-24T10:29:28;8.82;;;4.13;;
78664;SDS011;67981;51.022;-2.870;2023-04-24T10:31:56;11.35;;;4.50;;
78664;SDS011;67981;51.022;-2.870;2023-04-24T10:34:21;7.57;;;3.88;;
78664;SDS011;67981;51.022;-2.870;2023-04-24T10:36:50;9.77;;;4.35;;
78664;SDS011;67981;51.022;-2.870;2023-04-24T10:39:17;13.40;;;4.10;;
78664;SDS011;67981;51.022;-2.870;2023-04-24T10:41:44;7.20;;;3.92;;
78664;SDS011;67981;51.022;-2.870;2023-04-24T10:44:14;5.38;;;3.85;;
78664;SDS011;67981;51.022;-2.870;2023-04-24T10:46:46;7.03;;;3.65;;
78664;SDS011;67981;51.022;-2.870;2023-04-24T10:49:27;7.50;;;3.78;;
78664;SDS011;67981;51.022;-2.870;2023-04-24T10:51:54;5.10;;;2.88;;
78664;SDS011;67981;51.022;-2.870;2023-04-24T10:54:27;6.00;;;3.60;;
78664;SDS011;67981;51.022;-2.870;2023-04-24T10:59:44;8.68;;;3.80;;
78664;SDS011;67981;51.022;-2.870;2023-04-24T11:02:10;6.15;;;2.88;;
78664;SDS011;67981;51.022;-2.870;2023-04-24T11:04:36;6.80;;;2.72;;
78664;SDS011;67981;51.022;-2.870;2023-04-24T11:07:04;4.05;;;2.00;;
78664;SDS011;67981;51.022;-2.870;2023-04-24T11:15:19;4.15;;;2.08;;
78664;SDS011;67981;51.022;-2.870;2023-04-24T11:17:33;3.25;;;1.85;;
78664;SDS011;67981;51.022;-2.870;2023-04-24T11:20:03;4.15;;;2.67;;
78664;SDS011;67981;51.022;-2.870;2023-04-24T11:22:30;3.88;;;2.17;;
78664;SDS011;67981;51.022;-2.870;2023-04-24T11:24:59;4.88;;;2.88;;
78664;SDS011;67981;51.022;-2.870;2023-04-24T11:27:27;4.82;;;3.38;;
78664;SDS011;67981;51.022;-2.870;2023-04-24T11:30:03;3.63;;;2.40;;
78664;SDS011;67981;51.022;-2.870;2023-04-24T11:35:01;5.35;;;3.25;;
78664;SDS011;67981;51.022;-2.870;2023-04-24T11:37:28;4.28;;;2.55;;
78664;SDS011;67981;51.022;-2.870;2023-04-24T11:39:58;3.83;;;2.50;;
78664;SDS011;67981;51.022;-2.870;2023-04-24T11:42:24;4.32;;;2.83;;
78664;SDS011;67981;51.022;-2.870;2023-04-24T11:44:52;5.00;;;2.28;;
78664;SDS011;67981;51.022;-2.870;2023-04-24T11:47:19;3.90;;;2.40;;
78664;SDS011;67981;51.022;-2.870;2023-04-24T11:49:44;3.78;;;2.58;;
78664;SDS011;67981;51.022;-2.870;2023-04-24T11:52:10;5.55;;;3.00;;
78664;SDS011;67981;51.022;-2.870;2023-04-24T11:54:36;4.63;;;3.10;;
78664;SDS011;67981;51.022;-2.870;2023-04-24T11:57:05;3.53;;;2.30;;
78664;SDS011;67981;51.022;-2.870;2023-04-24T11:59:35;4.75;;;2.75;;
78664;SDS011;67981;51.022;-2.870;2023-04-24T12:02:02;3.67;;;2.80;;
78664;SDS011;67981;51.022;-2.870;2023-04-24T12:04:37;4.75;;;3.03;;
78664;SDS011;67981;51.022;-2.870;2023-04-24T12:07:03;3.60;;;2.50;;
78664;SDS011;67981;51.022;-2.870;2023-04-24T12:09:46;5.55;;;2.70;;
78664;SDS011;67981;51.022;-2.870;2023-04-24T12:12:20;5.93;;;2.95;;
78664;SDS011;67981;51.022;-2.870;2023-04-24T12:14:55;4.45;;;2.65;;
78664;SDS011;67981;51.022;-2.870;2023-04-24T12:17:28;5.13;;;2.85;;
78664;SDS011;67981;51.022;-2.870;2023-04-24T12:20:14;3.95;;;2.75;;
78664;SDS011;67981;51.022;-2.870;2023-04-24T12:22:55;7.15;;;2.92;;
78664;SDS011;67981;51.022;-2.870;2023-04-24T12:25:26;5.35;;;3.05;;
78664;SDS011;67981;51.022;-2.870;2023-04-24T12:28:34;3.80;;;2.90;;
78664;SDS011;67981;51.022;-2.870;2023-04-24T12:30:47;5.05;;;2.40;;
78664;SDS011;67981;51.022;-2.870;2023-04-24T12:33:17;5.50;;;2.97;;
78664;SDS011;67981;51.022;-2.870;2023-04-24T12:35:44;3.92;;;2.60;;
78664;SDS011;67981;51.022;-2.870;2023-04-24T12:38:11;4.63;;;2.75;;
78664;SDS011;67981;51.022;-2.870;2023-04-24T12:40:39;4.07;;;2.20;;
78664;SDS011;67981;51.022;-2.870;2023-04-24T12:43:13;4.05;;;3.28;;
78664;SDS011;67981;51.022;-2.870;2023-04-24T12:45:39;5.28;;;2.80;;
78664;SDS011;67981;51.022;-2.870;2023-04-24T12:48:05;3.90;;;2.35;;
78664;SDS011;67981;51.022;-2.870;2023-04-24T12:50:30;4.00;;;2.50;;
78664;SDS011;67981;51.022;-2.870;2023-04-24T12:52:56;4.32;;;2.20;;
78664;SDS011;67981;51.022;-2.870;2023-04-24T12:55:21;3.55;;;2.28;;
78664;SDS011;67981;51.022;-2.870;2023-04-24T12:57:46;5.32;;;2.65;;
78664;SDS011;67981;51.022;-2.870;2023-04-24T13:00:12;4.15;;;2.47;;
78664;SDS011;67981;51.022;-2.870;2023-04-24T13:02:38;4.00;;;2.92;;
78664;SDS011;67981;51.022;-2.870;2023-04-24T13:05:03;4.32;;;2.53;;
78664;SDS011;67981;51.022;-2.870;2023-04-24T13:07:29;3.78;;;2.33;;
78664;SDS011;67981;51.022;-2.870;2023-04-24T13:09:55;6.17;;;2.87;;
78664;SDS011;67981;51.022;-2.870;2023-04-24T13:12:21;4.22;;;2.75;;
78664;SDS011;67981;51.022;-2.870;2023-04-24T13:14:48;4.60;;;2.70;;
78664;SDS011;67981;51.022;-2.870;2023-04-24T13:17:14;4.93;;;2.97;;
78664;SDS011;67981;51.022;-2.870;2023-04-24T13:19:40;5.85;;;2.65;;
78664;SDS011;67981;51.022;-2.870;2023-04-24T13:22:08;4.55;;;3.05;;
78664;SDS011;67981;51.022;-2.870;2023-04-24T13:24:35;5.15;;;3.17;;
78664;SDS011;67981;51.022;-2.870;2023-04-24T13:27:00;4.60;;;3.35;;
78664;SDS011;67981;51.022;-2.870;2023-04-24T13:29:27;4.82;;;3.25;;
78664;SDS011;67981;51.022;-2.870;2023-04-24T13:31:53;7.10;;;4.20;;
78664;SDS011;67981;51.022;-2.870;2023-04-24T13:34:20;5.15;;;2.92;;
78664;SDS011;67981;51.022;-2.870;2023-04-24T13:36:45;7.40;;;2.90;;
78664;SDS011;67981;51.022;-2.870;2023-04-24T13:39:11;5.03;;;3.00;;
78664;SDS011;67981;51.022;-2.870;2023-04-24T13:41:36;5.20;;;3.15;;
78664;SDS011;67981;51.022;-2.870;2023-04-24T13:44:02;13.10;;;4.10;;
78664;SDS011;67981;51.022;-2.870;2023-04-24T13:46:28;6.72;;;3.60;;
78664;SDS011;67981;51.022;-2.870;2023-04-24T13:48:54;14.38;;;4.38;;
78664;SDS011;67981;51.022;-2.870;2023-04-24T13:51:19;17.60;;;4.05;;
78664;SDS011;67981;51.022;-2.870;2023-04-24T13:53:45;6.10;;;2.97;;
78664;SDS011;67981;51.022;-2.870;2023-04-24T13:56:10;5.63;;;3.40;;
78664;SDS011;67981;51.022;-2.870;2023-04-24T13:58:37;6.07;;;3.40;;
78664;SDS011;67981;51.022;-2.870;2023-04-24T14:01:03;12.55;;;6.20;;
78664;SDS011;67981;51.022;-2.870;2023-04-24T14:03:29;18.77;;;7.90;;
78664;SDS011;67981;51.022;-2.870;2023-04-24T14:05:54;11.45;;;7.53;;
78664;SDS011;67981;51.022;-2.870;2023-04-24T14:08:20;7.78;;;4.50;;
78664;SDS011;67981;51.022;-2.870;2023-04-24T14:10:45;13.17;;;11.70;;
78664;SDS011;67981;51.022;-2.870;2023-04-24T14:13:10;5.95;;;3.70;;
78664;SDS011;67981;51.022;-2.870;2023-04-24T14:15:36;17.77;;;13.48;;
78664;SDS011;67981;51.022;-2.870;2023-04-24T14:18:02;10.45;;;8.63;;
78664;SDS011;67981;51.022;-2.870;2023-04-24T14:20:28;6.57;;;4.20;;
78664;SDS011;67981;51.022;-2.870;2023-04-24T14:22:53;6.77;;;5.37;;
78664;SDS011;67981;51.022;-2.870;2023-04-24T14:25:19;6.78;;;3.95;;
78664;SDS011;67981;51.022;-2.870;2023-04-24T14:27:44;9.23;;;6.23;;
78664;SDS011;67981;51.022;-2.870;2023-04-24T14:30:10;7.70;;;5.85;;
78664;SDS011;67981;51.022;-2.870;2023-04-24T14:32:38;6.25;;;4.20;;
78664;SDS011;67981;51.022;-2.870;2023-04-24T14:35:04;5.90;;;3.03;;